Terminal Aerodrome Forecast
Issued by NWS Charleston, WV

Current Version | Previous Version | Graphics & Text | Print | Product List | Glossary On
Versions: 1 2 3 4 5 6 7 8 9 10 11 12 13 14 15 16 17 18 19 20 21 22 23 24 25 26 27
415
FTUS41 KRLX 230253 AAA
TAFEKN
TAF AMD
KEKN 230253Z 2303/2324 28003KT P6SM SKC
     FM230500 VRB03KT 3SM BR FEW200
     FM230700 00000KT 1 1/2SM BR SCT001
     FM230800 VRB03KT 1/4SM FG VV001
     FM231230 VRB03KT 4SM BR SCT002
     FM231300 28004KT P6SM SCT045=

USA.gov is the U.S. government's official web portal to all federal, state and local government web resources and services.